EBAW/ANR METAR and TAF weather

Enter ICAO airport designator
Station Type Date Time Source
EBAW METAR 2019/10/18 05:50 UTC NOAA

EBAW 180550Z 16007KT 9999 FEW023 SCT030 13/11 Q1003 TEMPO 23018G34KT 3500 SHRA


Station Type Date Time Source
EBAW Decoded METAR 2019/10/18 05:50 UTC NOAA

Antwerpen / Deurne, Belgium (EBAW) 51-12N 004-28E 14M
Oct 18, 2019 - 01:50 AM EDT / 2019.10.18 0550 UTC
Wind: from the SSE (160 degrees) at 8 MPH (7 KT):0
Visibility: greater than 7 mile(s):0
Sky conditions: partly cloudy
Temperature: 55 F (13 C)
Dew Point: 51 F (11 C)
Relative Humidity: 87%
Pressure (altimeter): 29.62 in. Hg (1003 hPa)
ob: EBAW 180550Z 16007KT 9999 FEW023 SCT030 13/11 Q1003 TEMPO 23018G34KT 3500 SHRA
cycle: 6

Station Type Date Time Source
EBAW TAF 2019/07/25 18:27 UTC NOAA

TAF TAF EBAW 251700Z 2518/2606 11007KT CAVOK PROB30
TEMPO 2518/2520 VRB15G30KT 3500 SHRA TSRA

Example: see airport list